createdAt,value
2024-04-12T00:03:49.447Z,76.20
2024-04-12T00:06:16.511Z,73.40
2024-04-12T00:08:47.946Z,73.93
2024-04-12T00:11:22.280Z,69.15
2024-04-12T00:13:53.568Z,68.45
2024-04-12T00:16:26.950Z,68.60
2024-04-12T00:19:13.770Z,60.83
2024-04-12T00:21:42.937Z,67.47
2024-04-12T00:24:13.489Z,66.53
2024-04-12T00:26:50.131Z,62.05
2024-04-12T00:29:38.388Z,66.88
2024-04-12T00:32:16.890Z,63.55
2024-04-12T00:35:04.397Z,60.40
2024-04-12T00:37:34.474Z,64.97
2024-04-12T00:42:32.799Z,59.63
2024-04-12T00:45:00.200Z,62.38
2024-04-12T00:47:33.535Z,64.68
2024-04-12T00:50:03.600Z,62.35
2024-04-12T00:52:34.677Z,62.83
2024-04-12T00:55:10.630Z,59.25
2024-04-12T00:57:39.794Z,59.95
2024-04-12T01:00:11.196Z,59.47
2024-04-12T01:02:43.778Z,57.05
2024-04-12T01:05:19.354Z,62.90
2024-04-12T01:07:57.890Z,60.13
2024-04-12T01:10:26.049Z,61.15
2024-04-12T01:12:57.343Z,58.22
2024-04-12T01:15:38.917Z,59.95
2024-04-12T01:18:13.090Z,59.08
2024-04-12T01:20:41.201Z,54.33
2024-04-12T01:23:08.109Z,54.88
2024-04-12T01:25:36.068Z,63.13
2024-04-12T01:28:04.810Z,58.47
2024-04-12T01:30:32.156Z,61.35
2024-04-12T01:32:59.461Z,60.90
2024-04-12T01:35:26.233Z,56.75
2024-04-12T01:37:53.262Z,58.67
2024-04-12T01:40:24.055Z,63.20
2024-04-12T01:42:50.995Z,61.30
2024-04-12T01:45:17.978Z,63.95
2024-04-12T01:47:49.375Z,57.55
2024-04-12T01:50:35.614Z,65.47
2024-04-12T01:53:10.720Z,65.20
2024-04-12T01:55:41.235Z,66.43
2024-04-12T01:58:07.848Z,64.10
2024-04-12T02:00:34.898Z,62.33
2024-04-12T02:03:03.820Z,68.22
2024-04-12T02:05:33.646Z,66.43
2024-04-12T02:08:04.734Z,64.28
2024-04-12T02:10:31.331Z,70.60
2024-04-12T02:12:57.895Z,65.63
2024-04-12T02:15:27.007Z,73.05
2024-04-12T02:18:00.268Z,73.43
2024-04-12T02:20:35.194Z,66.50
2024-04-12T02:23:08.804Z,75.75
2024-04-12T02:25:36.877Z,74.90
2024-04-12T02:28:09.319Z,73.97
2024-04-12T02:30:45.960Z,82.03
2024-04-12T02:33:15.704Z,83.97
2024-04-12T02:35:42.874Z,81.38
2024-04-12T02:38:17.354Z,89.05
2024-04-12T02:40:44.919Z,87.03
2024-04-12T02:43:16.522Z,83.72
2024-04-12T02:45:53.940Z,84.50
2024-04-12T02:48:24.008Z,84.68
2024-04-12T02:53:26.245Z,72.63
2024-04-12T02:56:13.061Z,79.03
2024-04-12T02:58:45.561Z,83.78
2024-04-12T03:01:15.281Z,72.55
2024-04-12T03:03:47.137Z,80.90
2024-04-12T03:06:18.586Z,84.90
2024-04-12T03:08:50.358Z,74.80
2024-04-12T03:11:36.043Z,76.47
2024-04-12T03:14:05.554Z,76.63
2024-04-12T03:16:32.690Z,81.22
2024-04-12T03:19:00.061Z,70.93
2024-04-12T03:21:27.961Z,72.07
2024-04-12T03:23:56.685Z,74.63
2024-04-12T03:26:23.672Z,75.25
2024-04-12T03:28:55.242Z,68.18
2024-04-12T03:31:26.774Z,66.30
2024-04-12T03:33:57.270Z,75.72
2024-04-12T03:36:28.582Z,63.72
2024-04-12T03:39:22.124Z,67.13
2024-04-12T03:42:09.251Z,63.90
2024-04-12T03:44:37.974Z,65.47
2024-04-12T03:47:10.444Z,61.95
2024-04-12T03:49:41.060Z,67.53
2024-04-12T03:52:17.115Z,69.38
2024-04-12T03:54:46.936Z,68.88
2024-04-12T03:59:45.460Z,69.65
2024-04-12T04:02:15.508Z,71.95
2024-04-12T04:04:47.648Z,77.68
2024-04-12T04:07:17.006Z,71.25
2024-04-12T04:09:44.938Z,70.67
2024-04-12T04:12:16.176Z,68.97
2024-04-12T04:14:49.826Z,74.28
2024-04-12T04:17:19.597Z,73.28
2024-04-12T04:19:46.680Z,84.45
2024-04-12T04:22:28.611Z,83.43
2024-04-12T04:24:56.257Z,79.47
2024-04-12T04:27:24.178Z,83.40
2024-04-12T04:29:56.927Z,84.75
2024-04-12T04:32:24.999Z,86.75
2024-04-12T04:34:55.676Z,86.05
2024-04-12T04:37:27.869Z,88.25
2024-04-12T04:40:00.413Z,83.03
2024-04-12T04:42:26.978Z,96.50
2024-04-12T04:44:53.608Z,85.00
2024-04-12T04:47:24.441Z,88.03
2024-04-12T04:49:51.727Z,90.60
2024-04-12T04:52:18.324Z,92.40
2024-04-12T04:54:45.971Z,92.15
2024-04-12T04:57:14.011Z,92.55
2024-04-12T04:59:46.337Z,96.05
2024-04-12T05:02:13.393Z,91.13
2024-04-12T05:04:40.072Z,101.25
2024-04-12T05:07:07.008Z,94.82
2024-04-12T05:09:33.798Z,102.40
2024-04-12T05:12:01.830Z,105.40
2024-04-12T05:14:38.514Z,112.47
2024-04-12T05:17:10.861Z,105.65
2024-04-12T05:19:42.200Z,104.20
2024-04-12T05:22:11.860Z,109.25
2024-04-12T05:24:41.198Z,113.60
2024-04-12T05:27:09.226Z,104.97
2024-04-12T05:29:35.920Z,107.85
2024-04-12T05:32:02.765Z,115.47
2024-04-12T05:34:30.119Z,106.18
2024-04-12T05:37:01.584Z,106.07
2024-04-12T05:39:28.649Z,108.00
2024-04-12T05:41:55.805Z,101.95
2024-04-12T05:44:23.550Z,103.72
2024-04-12T05:46:50.150Z,100.15
2024-04-12T05:49:17.233Z,109.72
2024-04-12T05:51:43.862Z,100.97
2024-04-12T05:54:16.782Z,99.15
2024-04-12T05:56:48.171Z,100.45
2024-04-12T05:59:15.312Z,100.72
2024-04-12T06:01:52.862Z,101.35
2024-04-12T06:04:20.864Z,104.45
2024-04-12T06:06:48.755Z,95.57
2024-04-12T06:09:22.962Z,96.93
2024-04-12T06:11:55.327Z,94.93
2024-04-12T06:14:23.404Z,100.63
2024-04-12T06:16:55.636Z,90.75
2024-04-12T06:19:22.787Z,86.55
2024-04-12T06:21:50.070Z,94.15
2024-04-12T06:24:17.920Z,92.30
2024-04-12T06:26:50.731Z,93.07
2024-04-12T06:31:55.774Z,91.88
2024-04-12T06:34:23.774Z,95.25
2024-04-12T06:36:57.941Z,93.70
2024-04-12T06:39:28.115Z,92.30
2024-04-12T06:44:26.144Z,86.07
2024-04-12T06:46:53.375Z,87.82
2024-04-12T06:49:28.184Z,99.47
2024-04-12T06:52:11.311Z,87.53
2024-04-12T06:54:43.056Z,80.63
2024-04-12T06:57:11.310Z,84.10
2024-04-12T06:59:38.032Z,79.63
2024-04-12T07:02:06.216Z,80.85
2024-04-12T07:04:33.321Z,81.43
2024-04-12T07:07:03.998Z,71.55
2024-04-12T07:09:35.379Z,73.93
2024-04-12T07:12:08.578Z,72.38
2024-04-12T07:14:36.958Z,73.13
2024-04-12T07:17:21.131Z,63.85
2024-04-12T07:19:50.800Z,64.53
2024-04-12T07:22:22.051Z,70.53
2024-04-12T07:24:51.366Z,68.00
2024-04-12T07:27:19.412Z,62.43
2024-04-12T07:29:48.000Z,59.95
2024-04-12T07:32:18.622Z,56.83
2024-04-12T07:34:50.884Z,55.50
2024-04-12T07:37:33.150Z,57.67
2024-04-12T07:40:19.902Z,53.08
2024-04-12T07:42:47.631Z,49.28
2024-04-12T07:45:19.097Z,48.00
2024-04-12T07:47:55.181Z,48.13
2024-04-12T07:50:30.398Z,46.50
2024-04-12T07:53:20.972Z,42.38
2024-04-12T07:55:56.591Z,40.45
2024-04-12T07:58:27.963Z,45.33
2024-04-12T08:01:10.621Z,45.95
2024-04-12T08:03:39.184Z,42.13
2024-04-12T08:06:06.867Z,44.47
2024-04-12T08:08:48.054Z,42.05
2024-04-12T08:11:35.422Z,43.20
2024-04-12T08:14:22.387Z,41.35
2024-04-12T08:16:53.752Z,43.00
2024-04-12T08:19:23.700Z,40.83
2024-04-12T08:21:51.512Z,39.53
2024-04-12T08:24:24.042Z,42.38
2024-04-12T08:26:53.127Z,37.97
2024-04-12T08:29:25.184Z,36.40
2024-04-12T08:32:00.961Z,36.42
2024-04-12T08:34:29.356Z,42.03
2024-04-12T08:36:57.264Z,35.83
2024-04-12T08:39:26.979Z,37.33
2024-04-12T08:42:01.768Z,31.27
2024-04-12T08:44:31.387Z,33.38
2024-04-12T08:47:26.191Z,34.20
2024-04-12T08:50:04.361Z,31.08
2024-04-12T08:52:49.211Z,42.92
2024-04-12T08:55:21.786Z,33.00
2024-04-12T08:57:53.806Z,28.88
2024-04-12T09:00:23.986Z,34.05
2024-04-12T09:03:12.133Z,28.27
2024-04-12T09:05:44.112Z,27.63
2024-04-12T09:08:19.274Z,25.63
2024-04-12T09:10:47.270Z,26.55
2024-04-12T09:13:16.900Z,26.60
2024-04-12T09:15:50.002Z,27.35
2024-04-12T09:18:21.686Z,27.23
2024-04-12T09:21:03.880Z,26.02
2024-04-12T09:23:36.032Z,27.52
2024-04-12T09:29:12.840Z,31.17
2024-04-12T09:32:05.667Z,24.50
2024-04-12T09:34:38.072Z,24.45
2024-04-12T09:37:27.464Z,23.65
2024-04-12T09:40:21.468Z,23.77
2024-04-12T09:42:56.741Z,24.08
2024-04-12T09:45:29.449Z,24.40
2024-04-12T09:48:16.634Z,23.13
2024-04-12T09:51:03.019Z,23.63
2024-04-12T09:53:56.415Z,23.55
2024-04-12T09:57:18.168Z,23.35
2024-04-12T10:00:18.621Z,23.85
2024-04-12T10:03:07.389Z,25.13
2024-04-12T10:05:54.915Z,24.17
2024-04-12T10:08:41.458Z,24.08
2024-04-12T10:11:27.849Z,24.27
2024-04-12T10:14:14.982Z,23.45
2024-04-12T10:17:00.588Z,24.08
2024-04-12T10:19:46.757Z,24.98
2024-04-12T10:22:33.688Z,23.85
2024-04-12T10:25:22.714Z,25.30
2024-04-12T10:28:11.611Z,24.98
2024-04-12T10:31:04.815Z,24.95
2024-04-12T10:34:01.541Z,25.55
2024-04-12T10:36:48.192Z,27.67
2024-04-12T10:39:15.605Z,25.15
2024-04-12T10:41:42.770Z,26.17
2024-04-12T10:44:11.800Z,25.15
2024-04-12T10:46:38.471Z,26.15
2024-04-12T10:49:05.107Z,26.48
2024-04-12T10:51:33.052Z,25.42
2024-04-12T10:54:00.262Z,25.48
2024-04-12T10:56:28.138Z,25.42
2024-04-12T10:58:58.315Z,25.95
2024-04-12T11:01:28.004Z,24.98
2024-04-12T11:03:57.947Z,24.50
2024-04-12T11:06:32.981Z,24.88
2024-04-12T11:09:00.803Z,24.38
2024-04-12T11:11:39.493Z,24.48
2024-04-12T11:14:16.865Z,24.17
2024-04-12T11:17:07.026Z,23.95
2024-04-12T11:19:56.167Z,26.27
2024-04-12T11:22:45.765Z,24.80
2024-04-12T11:25:32.426Z,26.77
2024-04-12T11:28:18.953Z,24.65
2024-04-12T11:31:04.224Z,24.20
2024-04-12T11:33:36.312Z,24.50
2024-04-12T11:36:06.927Z,24.42
2024-04-12T11:41:05.838Z,23.75
2024-04-12T11:43:35.433Z,25.08
2024-04-12T11:46:04.873Z,23.67
2024-04-12T11:48:32.762Z,25.58
2024-04-12T11:51:00.840Z,24.38
2024-04-12T11:53:27.582Z,25.10
2024-04-12T11:55:56.568Z,26.23
2024-04-12T11:58:23.840Z,23.77
2024-04-12T12:00:50.484Z,25.45
2024-04-12T12:03:18.082Z,23.25
2024-04-12T12:05:47.302Z,23.80
2024-04-12T12:08:14.504Z,24.00
2024-04-12T12:10:42.595Z,24.25
2024-04-12T12:13:09.283Z,23.40
2024-04-12T12:15:36.169Z,24.13
2024-04-12T12:18:02.838Z,24.65
2024-04-12T12:20:31.774Z,26.23
2024-04-12T12:22:59.718Z,23.48
2024-04-12T12:25:27.710Z,24.17
2024-04-12T12:27:56.187Z,24.08
2024-04-12T12:30:24.437Z,25.40
2024-04-12T12:32:51.365Z,23.58
2024-04-12T12:35:24.251Z,23.27
2024-04-12T12:37:52.451Z,24.50
2024-04-12T12:40:19.866Z,26.25
2024-04-12T12:42:47.876Z,23.02
2024-04-12T12:45:18.147Z,22.60
2024-04-12T12:47:45.454Z,23.08
2024-04-12T12:50:21.417Z,22.90
2024-04-12T12:52:51.699Z,23.60
2024-04-12T12:55:20.541Z,22.00
2024-04-12T12:57:47.286Z,21.10
2024-04-12T13:00:20.243Z,23.35
2024-04-12T13:02:51.671Z,22.77
2024-04-12T13:05:20.026Z,22.48
2024-04-12T13:07:50.384Z,25.23
2024-04-12T13:10:21.101Z,22.85
2024-04-12T13:12:52.507Z,22.25
2024-04-12T13:15:20.933Z,22.98
2024-04-12T13:17:48.106Z,22.48
2024-04-12T13:20:20.598Z,22.92
2024-04-12T13:22:48.818Z,22.23
2024-04-12T13:25:18.394Z,23.38
2024-04-12T13:27:56.741Z,24.08
2024-04-12T13:30:25.855Z,21.35
2024-04-12T13:32:59.701Z,23.15
2024-04-12T13:35:26.629Z,21.77
2024-04-12T13:37:56.378Z,23.20
2024-04-12T13:40:22.981Z,23.35
2024-04-12T13:42:50.811Z,20.58
2024-04-12T13:45:36.427Z,24.38
2024-04-12T13:48:21.860Z,23.42
2024-04-12T13:50:57.717Z,24.67
2024-04-12T13:53:33.993Z,23.02
2024-04-12T13:56:21.829Z,21.70
2024-04-12T13:58:50.509Z,23.77
2024-04-12T14:01:26.407Z,23.10
2024-04-12T14:04:04.760Z,23.50
2024-04-12T14:06:37.557Z,28.65
2024-04-12T14:09:14.740Z,23.08
2024-04-12T14:11:42.481Z,24.55
2024-04-12T14:14:10.056Z,24.02
2024-04-12T14:16:43.618Z,23.15
2024-04-12T14:19:21.537Z,23.52
2024-04-12T14:21:53.291Z,22.90
2024-04-12T14:24:40.473Z,23.90
2024-04-12T14:27:07.835Z,24.90
2024-04-12T14:29:35.950Z,24.35
2024-04-12T14:32:07.073Z,23.70
2024-04-12T14:34:34.462Z,24.13
2024-04-12T14:37:01.519Z,24.35
2024-04-12T14:39:33.224Z,22.77
2024-04-12T14:42:05.927Z,23.50
2024-04-12T14:44:39.277Z,23.83
2024-04-12T14:47:07.110Z,23.85
2024-04-12T14:49:34.410Z,21.83
2024-04-12T14:52:02.382Z,19.98
2024-04-12T14:54:31.565Z,21.23
2024-04-12T14:56:58.287Z,21.80
2024-04-12T14:59:25.536Z,19.17
2024-04-12T15:01:52.359Z,17.83
2024-04-12T15:04:37.895Z,18.33
2024-04-12T15:07:23.322Z,26.15
2024-04-12T15:10:08.450Z,30.90
2024-04-12T15:12:53.562Z,32.63
2024-04-12T15:15:38.871Z,36.88
2024-04-12T15:18:24.250Z,33.88
2024-04-12T15:21:09.590Z,35.38
2024-04-12T15:23:54.681Z,26.00
2024-04-12T15:26:39.897Z,35.95
2024-04-12T15:29:25.398Z,34.50
2024-04-12T15:32:10.407Z,37.03
2024-04-12T15:34:55.669Z,37.17
2024-04-12T15:37:40.997Z,33.30
2024-04-12T15:40:26.454Z,40.55
2024-04-12T15:43:11.791Z,42.25
2024-04-12T15:45:57.199Z,35.13
2024-04-12T15:48:27.426Z,42.17
2024-04-12T15:50:56.096Z,34.88
2024-04-12T15:53:32.075Z,36.67
2024-04-12T15:56:01.950Z,38.30
2024-04-12T15:58:48.596Z,32.20
2024-04-12T16:01:42.148Z,32.97
2024-04-12T16:04:27.467Z,36.70
2024-04-12T16:07:12.822Z,31.73
2024-04-12T16:10:00.227Z,39.40
2024-04-12T16:12:27.509Z,34.17
2024-04-12T16:14:55.115Z,39.50
2024-04-12T16:17:22.028Z,35.55
2024-04-12T16:19:49.017Z,32.60
2024-04-12T16:22:19.051Z,43.17
2024-04-12T16:27:12.873Z,35.60
2024-04-12T16:29:41.635Z,36.28
2024-04-12T16:32:09.458Z,36.70
2024-04-12T16:34:36.121Z,38.38
2024-04-12T16:37:03.092Z,44.05
2024-04-12T16:39:29.704Z,35.15
2024-04-12T16:41:57.733Z,35.55
2024-04-12T16:44:24.687Z,35.35
2024-04-12T16:46:51.642Z,37.05
2024-04-12T16:49:18.533Z,36.42
2024-04-12T16:51:45.158Z,45.97
2024-04-12T16:54:11.857Z,39.63
2024-04-12T16:56:38.487Z,44.42
2024-04-12T16:59:06.553Z,34.38
2024-04-12T17:01:33.619Z,30.60
2024-04-12T17:04:01.489Z,39.63
2024-04-12T17:06:29.156Z,40.33
2024-04-12T17:08:56.013Z,51.83
2024-04-12T17:11:22.774Z,50.70
2024-04-12T17:13:49.875Z,43.42
2024-04-12T17:16:18.354Z,43.92
2024-04-12T17:18:45.135Z,40.65
2024-04-12T17:21:11.877Z,47.78
2024-04-12T17:23:38.538Z,37.22
2024-04-12T17:26:08.316Z,39.78
2024-04-12T17:28:35.027Z,40.85
2024-04-12T17:31:02.138Z,46.00
2024-04-12T17:33:31.110Z,36.55
2024-04-12T17:35:58.664Z,44.58
2024-04-12T17:38:27.884Z,41.53
2024-04-12T17:40:54.412Z,39.78
2024-04-12T17:43:22.446Z,42.45
2024-04-12T17:45:49.550Z,40.58
2024-04-12T17:48:16.441Z,43.13
2024-04-12T17:50:52.745Z,41.00
2024-04-12T17:53:19.383Z,34.95
2024-04-12T17:55:46.166Z,59.60
2024-04-12T17:58:21.570Z,42.78
2024-04-12T18:00:48.182Z,35.78
2024-04-12T18:03:15.270Z,44.65
2024-04-12T18:05:42.129Z,42.60
2024-04-12T18:08:08.761Z,40.08
2024-04-12T18:10:35.300Z,38.30
2024-04-12T18:13:01.891Z,37.33
2024-04-12T18:15:29.045Z,37.95
2024-04-12T18:17:55.861Z,33.63
2024-04-12T18:20:25.783Z,37.35
2024-04-12T18:25:20.829Z,36.58
2024-04-12T18:27:47.633Z,48.22
2024-04-12T18:30:14.444Z,52.50
2024-04-12T18:35:13.118Z,38.45
2024-04-12T18:38:00.275Z,62.40
2024-04-12T18:40:45.629Z,88.90
2024-04-12T18:43:30.767Z,55.10
2024-04-12T18:45:57.358Z,57.60
2024-04-12T18:48:27.963Z,53.28
2024-04-12T18:50:54.666Z,47.97
2024-04-12T18:53:23.055Z,61.70
2024-04-12T18:55:49.878Z,56.65
2024-04-12T18:58:16.490Z,57.08
2024-04-12T19:00:50.445Z,53.20
2024-04-12T19:03:17.233Z,64.13
2024-04-12T19:05:45.594Z,53.92
2024-04-12T19:08:12.683Z,75.93
2024-04-12T19:10:41.218Z,68.20
2024-04-12T19:13:08.779Z,59.90
2024-04-12T19:15:42.001Z,55.85
2024-04-12T19:18:10.816Z,48.25
2024-04-12T19:20:44.190Z,53.13
2024-04-12T19:23:11.419Z,63.70
2024-04-12T19:25:38.296Z,64.40
2024-04-12T19:28:06.056Z,72.25
2024-04-12T19:30:37.218Z,80.78
2024-04-12T19:33:04.252Z,67.72
2024-04-12T19:35:30.932Z,73.70
2024-04-12T19:37:57.629Z,82.22
2024-04-12T19:40:24.275Z,64.47
2024-04-12T19:42:50.868Z,64.80
2024-04-12T19:45:17.436Z,64.22
2024-04-12T19:47:44.131Z,66.00
2024-04-12T19:50:12.035Z,67.55
2024-04-12T19:52:42.401Z,78.82
2024-04-12T19:55:14.142Z,56.65
2024-04-12T19:57:40.764Z,70.13
2024-04-12T20:00:10.066Z,67.43
2024-04-12T20:02:36.798Z,67.18
2024-04-12T20:05:04.894Z,57.85
2024-04-12T20:07:31.663Z,61.72
2024-04-12T20:09:58.220Z,56.65
2024-04-12T20:12:24.813Z,61.95
2024-04-12T20:14:54.912Z,54.85
2024-04-12T20:17:22.931Z,63.70
2024-04-12T20:19:57.280Z,64.15
2024-04-12T20:22:23.994Z,56.58
2024-04-12T20:24:50.985Z,57.42
2024-04-12T20:27:18.054Z,51.55
2024-04-12T20:29:56.180Z,64.28
2024-04-12T20:32:24.902Z,50.80
2024-04-12T20:35:15.543Z,56.38
2024-04-12T20:37:43.727Z,45.50
2024-04-12T20:40:10.703Z,61.22
2024-04-12T20:42:37.365Z,61.05
2024-04-12T20:45:04.667Z,52.40
2024-04-12T20:47:31.343Z,66.78
2024-04-12T20:49:58.012Z,65.95
2024-04-12T20:52:24.985Z,53.85
2024-04-12T20:54:51.676Z,61.63
2024-04-12T20:57:19.562Z,57.97
2024-04-12T20:59:52.392Z,58.67
2024-04-12T21:02:19.104Z,57.13
2024-04-12T21:04:45.907Z,59.53
2024-04-12T21:07:14.333Z,62.17
2024-04-12T21:09:41.102Z,67.45
2024-04-12T21:12:09.871Z,69.43
2024-04-12T21:14:37.858Z,60.38
2024-04-12T21:17:04.748Z,65.20
2024-04-12T21:19:31.428Z,54.35
2024-04-12T21:21:58.058Z,66.97
2024-04-12T21:24:24.778Z,75.63
2024-04-12T21:26:51.489Z,63.35
2024-04-12T21:29:18.636Z,67.75
2024-04-12T21:31:45.611Z,65.30
2024-04-12T21:34:13.473Z,64.75
2024-04-12T21:36:40.191Z,62.08
2024-04-12T21:39:07.077Z,73.45
2024-04-12T21:41:34.643Z,60.53
2024-04-12T21:44:01.285Z,74.00
2024-04-12T21:46:27.912Z,82.78
2024-04-12T21:48:55.067Z,66.82
2024-04-12T21:51:24.853Z,66.97
2024-04-12T21:53:51.882Z,63.25
2024-04-12T21:56:22.314Z,73.82
2024-04-12T21:58:52.991Z,68.20
2024-04-12T22:01:20.604Z,66.00
2024-04-12T22:03:47.846Z,63.28
2024-04-12T22:06:15.714Z,69.18
2024-04-12T22:08:42.528Z,74.80
2024-04-12T22:11:09.354Z,70.72
2024-04-12T22:13:37.221Z,74.78
2024-04-12T22:16:10.418Z,78.10
2024-04-12T22:18:39.256Z,64.45
2024-04-12T22:21:06.999Z,69.53
2024-04-12T22:23:36.799Z,79.15
2024-04-12T22:26:11.941Z,84.82
2024-04-12T22:28:41.023Z,63.92
2024-04-12T22:31:08.162Z,76.80
2024-04-12T22:33:35.272Z,72.70
2024-04-12T22:36:09.985Z,64.63
2024-04-12T22:38:36.861Z,67.22
2024-04-12T22:41:03.847Z,66.93
2024-04-12T22:43:30.436Z,74.18
2024-04-12T22:45:57.024Z,76.72
2024-04-12T22:48:24.302Z,73.30
2024-04-12T22:50:52.248Z,69.50
2024-04-12T22:53:18.858Z,82.57
2024-04-12T22:55:45.478Z,80.20
2024-04-12T22:58:13.663Z,76.50
2024-04-12T23:00:40.823Z,73.85
2024-04-12T23:03:07.809Z,80.43
2024-04-12T23:05:34.681Z,70.80
2024-04-12T23:08:01.436Z,79.03
2024-04-12T23:10:31.579Z,67.63
2024-04-12T23:15:25.600Z,87.10
2024-04-12T23:17:52.528Z,67.68
2024-04-12T23:20:19.759Z,90.47
2024-04-12T23:22:46.637Z,95.03
2024-04-12T23:25:13.249Z,85.00
2024-04-12T23:27:39.932Z,85.57
2024-04-12T23:30:07.290Z,80.47
2024-04-12T23:32:33.982Z,83.03
2024-04-12T23:35:02.616Z,70.32
2024-04-12T23:37:29.330Z,80.90
2024-04-12T23:39:55.949Z,68.60
2024-04-12T23:42:22.539Z,85.25
2024-04-12T23:44:49.222Z,77.07
2024-04-12T23:47:16.754Z,68.05
2024-04-12T23:49:43.377Z,75.20
2024-04-12T23:52:10.123Z,80.25
2024-04-12T23:54:38.683Z,65.10
2024-04-12T23:57:05.724Z,65.68
2024-04-12T23:59:32.405Z,68.50
